Pacific Titan — WCZ6844 — position and weather

sailwx.info

Track history (hours):
 
Tides and Currents Weather Stations Pressure Air Temp Water Temp Dewpoint Dewpoint Depression Visibility Wind Speed Wind Dir Waves Ship Positions

Pacific Titan

Owner: WESTERN TOWBOAT CO, SEATTLE, WA. More information available from US FCC via Universal Licensing System and Coast Guard Vessel Documentation Center.

Last reported at 2017-Mar-23 18:00 UTC. Time now 2017-Mar-25 05:58 UTC.
Position N 58°18' W 136°00'.

Type: Tow > 200 m length. MMSI: 338855000.

Wind from 360 at 10 knots

Barometer 1012.0 mb
Air temperature 1.7 ° C
Visibility: greater than 5.4 NM

Date/timePositionNaut miles runAvg speedWind from/ knotsBaromVisibWave heightAir tempDewpointWater temp
2017-Mar-23 18:00N 58°18' W 136°00'   360 / 101012.0 5.4 1.7
2017-Mar-19 12:31N 51°18' W 127°53'8 8.5
2017-Mar-19 11:33N 51°10' W 127°51'7 7.5
2017-Mar-19 10:33N 51°04' W 127°42'8 8.4
2017-Mar-19 09:33N 50°59' W 127°33'10 9.7
2017-Mar-19 08:33N 50°53' W 127°21'1010.2
2017-Mar-19 07:32N 50°46' W 127°08'1110.1
2017-Mar-19 06:27N 50°41' W 126°53'45 9.0
2017-Mar-19 01:26N 50°23' W 125°48'7 8.5
2017-Mar-19 00:33N 50°22' W 125°36'8 8.2
2017-Mar-18 23:33N 50°18' W 125°25'1010.5
2017-Mar-18 22:33N 50°08' W 125°21'1111.2
2017-Mar-18 21:33N 49°59' W 125°11'1010.1
2017-Mar-18 20:33N 49°52' W 124°59'10 9.8
2017-Mar-18 19:33N 49°46' W 124°48'10 9.9
2017-Mar-18 18:33N 49°40' W 124°36'9 9.1
2017-Mar-18 17:33N 49°34' W 124°24'9 9.4
2017-Mar-18 16:33N 49°30' W 124°11'10 9.8
2017-Mar-18 15:33N 49°23' W 124°00'9 9.1
2017-Mar-18 14:33N 49°18' W 123°49'8 8.3
2017-Mar-18 13:33N 49°14' W 123°38'9 9.3
2017-Mar-18 12:33N 49°07' W 123°28'10 9.6
2017-Mar-18 11:33N 49°01' W 123°17'9 9.4
2017-Mar-18 10:33N 48°55' W 123°06'1010.2
2017-Mar-18 09:33N 48°49' W 122°53'9 9.5
2017-Mar-18 08:33N 48°42' W 122°43'9 8.9
2017-Mar-18 07:33N 48°33' W 122°45'10 9.8
2017-Mar-18 06:33N 48°23' W 122°44'1010.0
2017-Mar-18 05:33N 48°14' W 122°48'10 9.6
2017-Mar-18 04:30N 48°06' W 122°39'9 9.2
2017-Mar-18 03:33N 47°58' W 122°34'9 9.1
2017-Mar-18 02:33N 47°50' W 122°27'9 8.9
2017-Mar-18 01:33N 47°41' W 122°27'7 7.4
2017-Mar-18 00:33N 47°35' W 122°21'2 1.5
2017-Mar-17 23:33N 47°33' W 122°21'0 0.2
2017-Mar-17 22:33N 47°33' W 122°21'8 7.7
2017-Mar-17 21:33N 47°41' W 122°25'2 2.3
2017-Mar-17 20:33N 47°39' W 122°22'0 0.0
2017-Mar-17 19:33N 47°39' W 122°22'0 0.0
2017-Mar-17 18:33N 47°39' W 122°22'0 0.0
2017-Mar-17 17:34N 47°39' W 122°22'0 0.0
2017-Mar-17 16:33N 47°39' W 122°22'0 0.0
2017-Mar-17 15:33N 47°39' W 122°22'0 0.0
2017-Mar-17 14:33N 47°39' W 122°22'0 0.0
2017-Mar-17 13:33N 47°39' W 122°22'0 0.0
2017-Mar-17 12:33N 47°39' W 122°22'0 0.0
2017-Mar-17 11:33N 47°39' W 122°22'0 0.0
2017-Mar-17 10:33N 47°39' W 122°22'0 0.0
2017-Mar-17 09:33N 47°39' W 122°22'0 0.0
2017-Mar-17 08:33N 47°39' W 122°22'0 0.0
2017-Mar-17 07:33N 47°39' W 122°22'0 0.0
2017-Mar-17 06:33N 47°39' W 122°22'0 0.0
2017-Mar-17 05:33N 47°39' W 122°22'0 0.0
2017-Mar-17 04:33N 47°39' W 122°22'0 0.0
2017-Mar-17 03:33N 47°39' W 122°22'0 0.0
2017-Mar-17 02:33N 47°39' W 122°22'0 0.0
2017-Mar-17 01:33N 47°39' W 122°22'0 0.0
2017-Mar-17 00:33N 47°39' W 122°22'0 0.0
2017-Mar-16 23:33N 47°39' W 122°22'0 0.0
2017-Mar-16 22:33N 47°39' W 122°22'0 0.0
2017-Mar-16 21:33N 47°39' W 122°22'0 0.0
2017-Mar-16 20:33N 47°39' W 122°22'  
Track history (hours):
 
Tides and Currents Weather Stations Pressure Air Temp Water Temp Dewpoint Dewpoint Depression Visibility Wind Speed Wind Dir Waves Ship Positions

Pacific Titan

Owner: WESTERN TOWBOAT CO, SEATTLE, WA. More information available from US FCC via Universal Licensing System and Coast Guard Vessel Documentation Center.

Last reported at 2017-Mar-23 18:00 UTC. Time now 2017-Mar-25 05:58 UTC.
Position N 58°18' W 136°00'.

Type: Tow > 200 m length. MMSI: 338855000.

Wind from 360 at 10 knots

Barometer 1012.0 mb
Air temperature 1.7 ° C
Visibility: greater than 5.4 NM

Date/timePositionNaut miles runAvg speedWind from/ knotsBaromVisibWave heightAir tempDewpointWater temp
2017-Mar-23 18:00N 58°18' W 136°00'   360 / 101012.0 5.4 1.7
2017-Mar-19 12:31N 51°18' W 127°53'8 8.5
2017-Mar-19 11:33N 51°10' W 127°51'7 7.5
2017-Mar-19 10:33N 51°04' W 127°42'8 8.4
2017-Mar-19 09:33N 50°59' W 127°33'10 9.7
2017-Mar-19 08:33N 50°53' W 127°21'1010.2
2017-Mar-19 07:32N 50°46' W 127°08'1110.1
2017-Mar-19 06:27N 50°41' W 126°53'45 9.0
2017-Mar-19 01:26N 50°23' W 125°48'7 8.5
2017-Mar-19 00:33N 50°22' W 125°36'8 8.2
2017-Mar-18 23:33N 50°18' W 125°25'1010.5
2017-Mar-18 22:33N 50°08' W 125°21'1111.2
2017-Mar-18 21:33N 49°59' W 125°11'1010.1
2017-Mar-18 20:33N 49°52' W 124°59'10 9.8
2017-Mar-18 19:33N 49°46' W 124°48'10 9.9
2017-Mar-18 18:33N 49°40' W 124°36'9 9.1
2017-Mar-18 17:33N 49°34' W 124°24'9 9.4
2017-Mar-18 16:33N 49°30' W 124°11'10 9.8
2017-Mar-18 15:33N 49°23' W 124°00'9 9.1
2017-Mar-18 14:33N 49°18' W 123°49'8 8.3
2017-Mar-18 13:33N 49°14' W 123°38'9 9.3
2017-Mar-18 12:33N 49°07' W 123°28'10 9.6
2017-Mar-18 11:33N 49°01' W 123°17'9 9.4
2017-Mar-18 10:33N 48°55' W 123°06'1010.2
2017-Mar-18 09:33N 48°49' W 122°53'9 9.5
2017-Mar-18 08:33N 48°42' W 122°43'9 8.9
2017-Mar-18 07:33N 48°33' W 122°45'10 9.8
2017-Mar-18 06:33N 48°23' W 122°44'1010.0
2017-Mar-18 05:33N 48°14' W 122°48'10 9.6
2017-Mar-18 04:30N 48°06' W 122°39'9 9.2
2017-Mar-18 03:33N 47°58' W 122°34'9 9.1
2017-Mar-18 02:33N 47°50' W 122°27'9 8.9
2017-Mar-18 01:33N 47°41' W 122°27'7 7.4
2017-Mar-18 00:33N 47°35' W 122°21'2 1.5
2017-Mar-17 23:33N 47°33' W 122°21'0 0.2
2017-Mar-17 22:33N 47°33' W 122°21'8 7.7
2017-Mar-17 21:33N 47°41' W 122°25'2 2.3
2017-Mar-17 20:33N 47°39' W 122°22'0 0.0
2017-Mar-17 19:33N 47°39' W 122°22'0 0.0
2017-Mar-17 18:33N 47°39' W 122°22'0 0.0
2017-Mar-17 17:34N 47°39' W 122°22'0 0.0
2017-Mar-17 16:33N 47°39' W 122°22'0 0.0
2017-Mar-17 15:33N 47°39' W 122°22'0 0.0
2017-Mar-17 14:33N 47°39' W 122°22'0 0.0
2017-Mar-17 13:33N 47°39' W 122°22'0 0.0
2017-Mar-17 12:33N 47°39' W 122°22'0 0.0
2017-Mar-17 11:33N 47°39' W 122°22'0 0.0
2017-Mar-17 10:33N 47°39' W 122°22'0 0.0
2017-Mar-17 09:33N 47°39' W 122°22'0 0.0
2017-Mar-17 08:33N 47°39' W 122°22'0 0.0
2017-Mar-17 07:33N 47°39' W 122°22'0 0.0
2017-Mar-17 06:33N 47°39' W 122°22'0 0.0
2017-Mar-17 05:33N 47°39' W 122°22'0 0.0
2017-Mar-17 04:33N 47°39' W 122°22'0 0.0
2017-Mar-17 03:33N 47°39' W 122°22'0 0.0
2017-Mar-17 02:33N 47°39' W 122°22'0 0.0
2017-Mar-17 01:33N 47°39' W 122°22'0 0.0
2017-Mar-17 00:33N 47°39' W 122°22'0 0.0
2017-Mar-16 23:33N 47°39' W 122°22'0 0.0
2017-Mar-16 22:33N 47°39' W 122°22'0 0.0
2017-Mar-16 21:33N 47°39' W 122°22'0 0.0
2017-Mar-16 20:33N 47°39' W 122°22'  

Dump ship's entire track history